sensor_id;sensor_type;location;lat;lon;timestamp;P1;durP1;ratioP1;P2;durP2;ratioP2
53939;SDS011;39850;43.324;21.916;2022-12-07T00:02:03;20.0;;;19.0;;
53939;SDS011;39850;43.324;21.916;2022-12-07T00:06:43;22.0;;;20.0;;
53939;SDS011;39850;43.324;21.916;2022-12-07T00:11:23;22.0;;;20.0;;
53939;SDS011;39850;43.324;21.916;2022-12-07T00:16:03;22.0;;;20.0;;
53939;SDS011;39850;43.324;21.916;2022-12-07T00:20:41;22.0;;;20.0;;
53939;SDS011;39850;43.324;21.916;2022-12-07T00:57:36;32.0;;;28.0;;
53939;SDS011;39850;43.324;21.916;2022-12-07T01:02:12;32.0;;;28.0;;
53939;SDS011;39850;43.324;21.916;2022-12-07T01:06:49;30.0;;;27.0;;
53939;SDS011;39850;43.324;21.916;2022-12-07T01:11:29;30.0;;;27.0;;
53939;SDS011;39850;43.324;21.916;2022-12-07T01:16:11;32.0;;;28.0;;
53939;SDS011;39850;43.324;21.916;2022-12-07T01:21:00;32.0;;;28.0;;
53939;SDS011;39850;43.324;21.916;2022-12-07T01:25:41;30.0;;;27.0;;
53939;SDS011;39850;43.324;21.916;2022-12-07T01:30:18;30.0;;;27.0;;
53939;SDS011;39850;43.324;21.916;2022-12-07T01:34:54;32.0;;;28.0;;
53939;SDS011;39850;43.324;21.916;2022-12-07T01:39:30;32.0;;;28.0;;
53939;SDS011;39850;43.324;21.916;2022-12-07T01:44:21;32.0;;;28.0;;
53939;SDS011;39850;43.324;21.916;2022-12-07T02:17:14;24.0;;;21.0;;
53939;SDS011;39850;43.324;21.916;2022-12-07T02:22:41;24.0;;;21.0;;
53939;SDS011;39850;43.324;21.916;2022-12-07T02:27:47;24.0;;;21.0;;
53939;SDS011;39850;43.324;21.916;2022-12-07T02:32:49;24.0;;;21.0;;
53939;SDS011;39850;43.324;21.916;2022-12-07T02:37:49;24.0;;;21.0;;
53939;SDS011;39850;43.324;21.916;2022-12-07T02:42:45;24.0;;;21.0;;
53939;SDS011;39850;43.324;21.916;2022-12-07T02:47:30;24.0;;;21.0;;
53939;SDS011;39850;43.324;21.916;2022-12-07T02:52:09;24.0;;;21.0;;
53939;SDS011;39850;43.324;21.916;2022-12-07T02:56:56;23.0;;;21.0;;
53939;SDS011;39850;43.324;21.916;2022-12-07T03:02:01;23.0;;;21.0;;
53939;SDS011;39850;43.324;21.916;2022-12-07T03:36:25;22.0;;;19.0;;
53939;SDS011;39850;43.324;21.916;2022-12-07T03:41:19;22.0;;;19.0;;
53939;SDS011;39850;43.324;21.916;2022-12-07T03:46:32;22.0;;;19.0;;
53939;SDS011;39850;43.324;21.916;2022-12-07T03:51:36;22.0;;;19.0;;
53939;SDS011;39850;43.324;21.916;2022-12-07T03:56:22;22.0;;;19.0;;
53939;SDS011;39850;43.324;21.916;2022-12-07T04:01:01;22.0;;;19.0;;
53939;SDS011;39850;43.324;21.916;2022-12-07T04:05:40;22.0;;;20.0;;
53939;SDS011;39850;43.324;21.916;2022-12-07T04:10:19;22.0;;;20.0;;
53939;SDS011;39850;43.324;21.916;2022-12-07T04:14:55;22.0;;;20.0;;
53939;SDS011;39850;43.324;21.916;2022-12-07T04:19:34;23.0;;;20.0;;
53939;SDS011;39850;43.324;21.916;2022-12-07T04:24:15;23.0;;;20.0;;
53939;SDS011;39850;43.324;21.916;2022-12-07T04:56:27;24.0;;;21.0;;
53939;SDS011;39850;43.324;21.916;2022-12-07T05:01:03;24.0;;;21.0;;
53939;SDS011;39850;43.324;21.916;2022-12-07T05:05:41;24.0;;;22.0;;
53939;SDS011;39850;43.324;21.916;2022-12-07T05:10:17;24.0;;;22.0;;
53939;SDS011;39850;43.324;21.916;2022-12-07T05:14:53;24.0;;;22.0;;
53939;SDS011;39850;43.324;21.916;2022-12-07T05:19:29;24.0;;;21.0;;
53939;SDS011;39850;43.324;21.916;2022-12-07T05:24:12;24.0;;;21.0;;
53939;SDS011;39850;43.324;21.916;2022-12-07T05:28:51;24.0;;;21.0;;
53939;SDS011;39850;43.324;21.916;2022-12-07T05:33:27;24.0;;;21.0;;
53939;SDS011;39850;43.324;21.916;2022-12-07T05:38:03;23.0;;;20.0;;
53939;SDS011;39850;43.324;21.916;2022-12-07T05:42:41;23.0;;;20.0;;
53939;SDS011;39850;43.324;21.916;2022-12-07T06:28:49;23.0;;;20.0;;
53939;SDS011;39850;43.324;21.916;2022-12-07T06:33:26;23.0;;;20.0;;
53939;SDS011;39850;43.324;21.916;2022-12-07T06:38:02;23.0;;;20.0;;
53939;SDS011;39850;43.324;21.916;2022-12-07T06:42:38;23.0;;;20.0;;
53939;SDS011;39850;43.324;21.916;2022-12-07T06:47:14;23.0;;;20.0;;
53939;SDS011;39850;43.324;21.916;2022-12-07T06:51:50;23.0;;;20.0;;
53939;SDS011;39850;43.324;21.916;2022-12-07T06:56:26;23.0;;;20.0;;
53939;SDS011;39850;43.324;21.916;2022-12-07T07:01:02;23.0;;;20.0;;
53939;SDS011;39850;43.324;21.916;2022-12-07T07:37:55;23.0;;;19.0;;
53939;SDS011;39850;43.324;21.916;2022-12-07T07:42:31;23.0;;;19.0;;
53939;SDS011;39850;43.324;21.916;2022-12-07T07:47:07;22.0;;;19.0;;
53939;SDS011;39850;43.324;21.916;2022-12-07T07:51:43;22.0;;;19.0;;
53939;SDS011;39850;43.324;21.916;2022-12-07T07:56:19;22.0;;;19.0;;
53939;SDS011;39850;43.324;21.916;2022-12-07T08:00:55;22.0;;;19.0;;
53939;SDS011;39850;43.324;21.916;2022-12-07T08:05:31;22.0;;;19.0;;
53939;SDS011;39850;43.324;21.916;2022-12-07T08:10:13;22.0;;;18.0;;
53939;SDS011;39850;43.324;21.916;2022-12-07T08:14:49;22.0;;;18.0;;
53939;SDS011;39850;43.324;21.916;2022-12-07T08:19:26;21.0;;;18.0;;
53939;SDS011;39850;43.324;21.916;2022-12-07T08:24:02;21.0;;;18.0;;
53939;SDS011;39850;43.324;21.916;2022-12-07T08:56:25;25.0;;;22.0;;
53939;SDS011;39850;43.324;21.916;2022-12-07T09:01:03;25.0;;;22.0;;
53939;SDS011;39850;43.324;21.916;2022-12-07T09:05:40;25.0;;;22.0;;
53939;SDS011;39850;43.324;21.916;2022-12-07T09:10:18;24.0;;;20.0;;
53939;SDS011;39850;43.324;21.916;2022-12-07T09:14:55;24.0;;;20.0;;
53939;SDS011;39850;43.324;21.916;2022-12-07T09:19:31;22.0;;;19.0;;
53939;SDS011;39850;43.324;21.916;2022-12-07T09:24:08;22.0;;;19.0;;
53939;SDS011;39850;43.324;21.916;2022-12-07T09:28:44;22.0;;;18.0;;
53939;SDS011;39850;43.324;21.916;2022-12-07T09:33:20;22.0;;;18.0;;
53939;SDS011;39850;43.324;21.916;2022-12-07T09:37:57;21.0;;;18.0;;
53939;SDS011;39850;43.324;21.916;2022-12-07T09:42:38;21.0;;;18.0;;
53939;SDS011;39850;43.324;21.916;2022-12-07T10:20:27;24.0;;;20.0;;
53939;SDS011;39850;43.324;21.916;2022-12-07T10:25:20;24.0;;;20.0;;
53939;SDS011;39850;43.324;21.916;2022-12-07T10:29:59;22.0;;;20.0;;
53939;SDS011;39850;43.324;21.916;2022-12-07T10:34:38;22.0;;;20.0;;
53939;SDS011;39850;43.324;21.916;2022-12-07T10:39:20;21.0;;;19.0;;
53939;SDS011;39850;43.324;21.916;2022-12-07T10:43:58;21.0;;;19.0;;
53939;SDS011;39850;43.324;21.916;2022-12-07T10:48:53;20.0;;;18.0;;
53939;SDS011;39850;43.324;21.916;2022-12-07T10:54:04;20.0;;;18.0;;
53939;SDS011;39850;43.324;21.916;2022-12-07T10:59:34;20.0;;;18.0;;
53939;SDS011;39850;43.324;21.916;2022-12-07T11:04:36;20.0;;;18.0;;
53939;SDS011;39850;43.324;21.916;2022-12-07T11:40:04;15.0;;;13.0;;
53939;SDS011;39850;43.324;21.916;2022-12-07T11:45:03;15.0;;;13.0;;
53939;SDS011;39850;43.324;21.916;2022-12-07T11:50:23;15.0;;;13.0;;
53939;SDS011;39850;43.324;21.916;2022-12-07T11:55:23;15.0;;;13.0;;
53939;SDS011;39850;43.324;21.916;2022-12-07T12:00:15;14.0;;;12.0;;
53939;SDS011;39850;43.324;21.916;2022-12-07T12:05:07;14.0;;;12.0;;
53939;SDS011;39850;43.324;21.916;2022-12-07T12:10:00;12.0;;;10.0;;
53939;SDS011;39850;43.324;21.916;2022-12-07T12:15:05;12.0;;;10.0;;
53939;SDS011;39850;43.324;21.916;2022-12-07T12:20:06;12.0;;;10.0;;
53939;SDS011;39850;43.324;21.916;2022-12-07T12:24:57;12.0;;;10.0;;
53939;SDS011;39850;43.324;21.916;2022-12-07T12:58:39;14.0;;;13.0;;
53939;SDS011;39850;43.324;21.916;2022-12-07T13:03:29;14.0;;;13.0;;
53939;SDS011;39850;43.324;21.916;2022-12-07T13:08:21;14.0;;;12.0;;
53939;SDS011;39850;43.324;21.916;2022-12-07T13:13:32;14.0;;;12.0;;
53939;SDS011;39850;43.324;21.916;2022-12-07T13:18:37;15.0;;;13.0;;
53939;SDS011;39850;43.324;21.916;2022-12-07T13:23:23;15.0;;;13.0;;
53939;SDS011;39850;43.324;21.916;2022-12-07T13:28:16;16.0;;;12.0;;
53939;SDS011;39850;43.324;21.916;2022-12-07T13:32:58;16.0;;;12.0;;
53939;SDS011;39850;43.324;21.916;2022-12-07T13:37:35;17.0;;;13.0;;
53939;SDS011;39850;43.324;21.916;2022-12-07T13:42:29;17.0;;;13.0;;
53939;SDS011;39850;43.324;21.916;2022-12-07T14:20:36;16.0;;;14.0;;
53939;SDS011;39850;43.324;21.916;2022-12-07T14:25:23;16.0;;;14.0;;
53939;SDS011;39850;43.324;21.916;2022-12-07T14:30:01;18.0;;;15.0;;
53939;SDS011;39850;43.324;21.916;2022-12-07T14:34:37;18.0;;;15.0;;
53939;SDS011;39850;43.324;21.916;2022-12-07T14:39:13;20.0;;;16.0;;
53939;SDS011;39850;43.324;21.916;2022-12-07T14:43:49;20.0;;;16.0;;
53939;SDS011;39850;43.324;21.916;2022-12-07T14:48:26;20.0;;;16.0;;
53939;SDS011;39850;43.324;21.916;2022-12-07T14:53:14;20.0;;;16.0;;
53939;SDS011;39850;43.324;21.916;2022-12-07T14:57:53;20.0;;;17.0;;
53939;SDS011;39850;43.324;21.916;2022-12-07T15:02:30;20.0;;;17.0;;
53939;SDS011;39850;43.324;21.916;2022-12-07T15:39:37;38.0;;;32.0;;
53939;SDS011;39850;43.324;21.916;2022-12-07T15:44:15;38.0;;;32.0;;
53939;SDS011;39850;43.324;21.916;2022-12-07T15:48:51;36.0;;;30.0;;
53939;SDS011;39850;43.324;21.916;2022-12-07T15:53:27;36.0;;;30.0;;
53939;SDS011;39850;43.324;21.916;2022-12-07T15:58:03;34.0;;;29.0;;
53939;SDS011;39850;43.324;21.916;2022-12-07T16:02:39;34.0;;;29.0;;
53939;SDS011;39850;43.324;21.916;2022-12-07T16:07:16;34.0;;;29.0;;
53939;SDS011;39850;43.324;21.916;2022-12-07T16:11:52;31.0;;;26.0;;
53939;SDS011;39850;43.324;21.916;2022-12-07T16:16:29;31.0;;;26.0;;
53939;SDS011;39850;43.324;21.916;2022-12-07T16:21:05;28.0;;;22.0;;
53939;SDS011;39850;43.324;21.916;2022-12-07T16:25:41;28.0;;;22.0;;
53939;SDS011;39850;43.324;21.916;2022-12-07T16:58:01;47.0;;;38.0;;
53939;SDS011;39850;43.324;21.916;2022-12-07T17:02:38;47.0;;;38.0;;
53939;SDS011;39850;43.324;21.916;2022-12-07T17:07:14;47.0;;;38.0;;
53939;SDS011;39850;43.324;21.916;2022-12-07T17:11:51;42.0;;;35.0;;
53939;SDS011;39850;43.324;21.916;2022-12-07T17:16:29;42.0;;;35.0;;
53939;SDS011;39850;43.324;21.916;2022-12-07T17:21:09;42.0;;;35.0;;
53939;SDS011;39850;43.324;21.916;2022-12-07T17:25:46;42.0;;;35.0;;
53939;SDS011;39850;43.324;21.916;2022-12-07T17:30:23;37.0;;;32.0;;
53939;SDS011;39850;43.324;21.916;2022-12-07T17:34:59;37.0;;;32.0;;
53939;SDS011;39850;43.324;21.916;2022-12-07T21:21:01;29.0;;;26.0;;
53939;SDS011;39850;43.324;21.916;2022-12-07T21:25:37;29.0;;;26.0;;
53939;SDS011;39850;43.324;21.916;2022-12-07T21:30:13;29.0;;;26.0;;
53939;SDS011;39850;43.324;21.916;2022-12-07T21:34:49;29.0;;;26.0;;
53939;SDS011;39850;43.324;21.916;2022-12-07T21:39:25;29.0;;;26.0;;
53939;SDS011;39850;43.324;21.916;2022-12-07T21:44:07;29.0;;;26.0;;
53939;SDS011;39850;43.324;21.916;2022-12-07T22:30:17;20.0;;;18.0;;
53939;SDS011;39850;43.324;21.916;2022-12-07T22:34:53;20.0;;;18.0;;
53939;SDS011;39850;43.324;21.916;2022-12-07T22:39:30;30.0;;;28.0;;
53939;SDS011;39850;43.324;21.916;2022-12-07T22:44:08;30.0;;;28.0;;
53939;SDS011;39850;43.324;21.916;2022-12-07T22:48:45;30.0;;;28.0;;
53939;SDS011;39850;43.324;21.916;2022-12-07T22:53:24;30.0;;;28.0;;
53939;SDS011;39850;43.324;21.916;2022-12-07T22:58:00;30.0;;;28.0;;
53939;SDS011;39850;43.324;21.916;2022-12-07T23:02:38;41.0;;;37.0;;
53939;SDS011;39850;43.324;21.916;2022-12-07T23:07:14;41.0;;;37.0;;
53939;SDS011;39850;43.324;21.916;2022-12-07T23:39:26;17.0;;;16.0;;
53939;SDS011;39850;43.324;21.916;2022-12-07T23:44:03;17.0;;;16.0;;
53939;SDS011;39850;43.324;21.916;2022-12-07T23:48:41;17.0;;;16.0;;
53939;SDS011;39850;43.324;21.916;2022-12-07T23:53:17;21.0;;;18.0;;
53939;SDS011;39850;43.324;21.916;2022-12-07T23:57:53;21.0;;;18.0;;
